createdAt,value
2018-08-04T00:00:36.040Z,24.00
2018-08-04T00:13:02.751Z,23.90
2018-08-04T00:19:16.050Z,23.60
2018-08-04T00:22:22.887Z,23.50
2018-08-04T00:28:36.211Z,23.40
2018-08-04T00:31:43.127Z,23.40
2018-08-04T00:37:56.324Z,23.30
2018-08-04T00:41:03.165Z,23.30
2018-08-04T00:44:10.046Z,23.20
2018-08-04T00:47:16.857Z,23.10
2018-08-04T00:50:24.135Z,23.10
2018-08-04T00:53:30.995Z,23.00
2018-08-04T00:59:44.656Z,23.10
2018-08-04T01:09:05.921Z,22.90
2018-08-04T01:12:13.119Z,22.90
2018-08-04T01:15:19.935Z,22.80
2018-08-04T01:18:26.731Z,22.90
2018-08-04T01:21:33.846Z,23.00
2018-08-04T01:24:41.085Z,22.80
2018-08-04T01:27:47.887Z,22.70
2018-08-04T01:30:54.685Z,22.70
2018-08-04T01:40:14.476Z,22.90
2018-08-04T01:43:21.319Z,22.80
2018-08-04T01:46:28.115Z,22.90
2018-08-04T01:49:34.895Z,23.00
2018-08-04T01:52:41.753Z,23.00
2018-08-04T01:55:48.566Z,22.70
2018-08-04T02:08:15.921Z,22.40
2018-08-04T02:11:22.750Z,22.20
2018-08-04T02:14:29.550Z,22.20
2018-08-04T02:17:36.045Z,22.20
2018-08-04T02:20:42.905Z,22.30
2018-08-04T02:23:49.765Z,22.40
2018-08-04T02:26:57.203Z,22.50
2018-08-04T02:30:04.361Z,22.60
2018-08-04T02:33:11.070Z,22.60
2018-08-04T02:36:18.015Z,22.60
2018-08-04T02:39:24.810Z,22.60
2018-08-04T02:42:31.703Z,22.60
2018-08-04T02:45:38.525Z,22.50
2018-08-04T02:48:45.145Z,22.60
2018-08-04T02:51:52.012Z,22.50
2018-08-04T02:58:05.983Z,22.40
2018-08-04T03:01:12.793Z,22.40
2018-08-04T03:04:19.661Z,22.40
2018-08-04T03:07:26.920Z,22.30
2018-08-04T03:16:47.100Z,22.20
2018-08-04T03:19:53.896Z,22.20
2018-08-04T03:23:00.410Z,22.20
2018-08-04T03:26:07.396Z,22.00
2018-08-04T03:29:14.670Z,22.10
2018-08-04T03:35:28.076Z,21.60
2018-08-04T03:38:34.859Z,21.50
2018-08-04T03:41:42.595Z,21.50
2018-08-04T03:44:49.051Z,21.40
2018-08-04T03:47:56.009Z,21.40
2018-08-04T03:51:02.467Z,21.40
2018-08-04T03:54:09.339Z,21.50
2018-08-04T03:57:16.471Z,21.60
2018-08-04T04:00:23.303Z,21.80
2018-08-04T04:03:30.184Z,21.80
2018-08-04T04:28:23.201Z,22.10
2018-08-04T04:37:43.264Z,22.00
2018-08-04T04:40:50.068Z,22.00
2018-08-04T04:43:56.914Z,22.10
2018-08-04T04:47:03.390Z,22.20
2018-08-04T04:50:10.182Z,22.00
2018-08-04T04:53:17.011Z,22.00
2018-08-04T04:59:30.247Z,22.00
2018-08-04T05:05:43.658Z,22.00
2018-08-04T05:08:50.541Z,22.00
2018-08-04T05:11:57.405Z,22.00
2018-08-04T05:21:17.821Z,22.20
2018-08-04T05:27:31.204Z,22.30
2018-08-04T05:30:38.002Z,22.40
2018-08-04T05:33:44.824Z,22.50
2018-08-04T05:39:58.085Z,22.60
2018-08-04T05:46:11.540Z,22.60
2018-08-04T05:52:24.914Z,22.70
2018-08-04T05:55:32.720Z,22.80
2018-08-04T05:58:39.536Z,22.80
2018-08-04T06:01:46.403Z,23.00
2018-08-04T06:08:00.543Z,23.00
2018-08-04T06:17:21.570Z,23.10
2018-08-04T06:20:28.362Z,23.30
2018-08-04T06:29:48.331Z,23.80
2018-08-04T06:32:55.191Z,24.10
2018-08-04T06:39:09.254Z,24.90
2018-08-04T06:48:29.361Z,25.00
2018-08-04T06:51:36.586Z,24.80
2018-08-04T07:00:56.922Z,24.40
2018-08-04T07:10:17.540Z,24.00
2018-08-04T07:13:24.456Z,24.10
2018-08-04T07:16:31.635Z,24.20
2018-08-04T07:28:58.848Z,24.80
2018-08-04T07:32:05.679Z,24.90
2018-08-04T07:35:12.492Z,24.90
2018-08-04T07:38:19.276Z,25.10
2018-08-04T07:41:26.084Z,25.10
2018-08-04T07:47:39.498Z,25.20
2018-08-04T07:50:46.279Z,25.20
2018-08-04T07:53:53.152Z,25.10
2018-08-04T07:56:59.949Z,25.20
2018-08-04T08:00:07.901Z,25.20
2018-08-04T08:03:15.269Z,25.30
2018-08-04T08:09:31.350Z,25.50
2018-08-04T08:15:46.644Z,25.70
2018-08-04T08:18:53.454Z,25.80
2018-08-04T08:22:00.276Z,25.90
2018-08-04T08:25:09.313Z,26.00
2018-08-04T08:28:17.686Z,26.00
2018-08-04T08:31:24.568Z,26.20
2018-08-04T08:34:31.336Z,26.40
2018-08-04T08:37:38.139Z,26.50
2018-08-04T08:46:58.510Z,27.10
2018-08-04T08:59:27.898Z,27.70
2018-08-04T09:02:34.764Z,27.70
2018-08-04T09:05:41.602Z,27.70
2018-08-04T09:08:48.426Z,27.70
2018-08-04T09:18:09.126Z,27.60
2018-08-04T09:21:15.950Z,27.60
2018-08-04T09:24:22.759Z,27.60
2018-08-04T09:27:29.564Z,27.80
2018-08-04T09:30:36.863Z,27.80
2018-08-04T09:33:43.764Z,27.80
2018-08-04T09:39:57.403Z,27.90
2018-08-04T09:43:04.271Z,27.90
2018-08-04T09:46:11.084Z,28.00
2018-08-04T09:52:24.853Z,28.10
2018-08-04T09:55:31.612Z,28.20
2018-08-04T09:58:38.976Z,28.30
2018-08-04T10:01:45.817Z,28.30
2018-08-04T10:04:52.914Z,28.40
2018-08-04T10:08:01.682Z,28.50
2018-08-04T10:11:08.517Z,28.60
2018-08-04T10:14:17.314Z,28.70
2018-08-04T10:17:23.253Z,28.70
2018-08-04T10:20:30.036Z,28.80
2018-08-04T10:23:36.854Z,29.00
2018-08-04T10:26:43.653Z,29.10
2018-08-04T10:29:50.460Z,29.30
2018-08-04T10:32:57.698Z,29.50
2018-08-04T10:45:28.970Z,30.70
2018-08-04T10:48:35.543Z,30.90
2018-08-04T10:51:42.373Z,31.00
2018-08-04T10:54:49.222Z,30.70
2018-08-04T10:57:56.024Z,30.60
2018-08-04T11:04:09.429Z,30.40
2018-08-04T11:07:16.221Z,30.40
2018-08-04T11:10:23.042Z,30.30
2018-08-04T11:16:37.093Z,30.30
2018-08-04T11:22:51.063Z,30.50
2018-08-04T11:25:57.907Z,30.40
2018-08-04T11:29:04.762Z,30.20
2018-08-04T11:32:11.951Z,30.30
2018-08-04T11:35:18.760Z,30.40
2018-08-04T11:38:25.591Z,30.40
2018-08-04T11:41:32.908Z,30.50
2018-08-04T11:44:39.704Z,30.60
2018-08-04T11:47:46.517Z,30.80
2018-08-04T11:50:53.695Z,30.90
2018-08-04T11:54:00.537Z,31.20
2018-08-04T12:00:14.359Z,31.30
2018-08-04T12:06:27.849Z,31.20
2018-08-04T12:15:47.536Z,30.90
2018-08-04T12:18:54.355Z,30.90
2018-08-04T12:22:01.258Z,30.90
2018-08-04T12:25:08.345Z,31.10
2018-08-04T12:28:15.207Z,31.00
2018-08-04T12:34:28.718Z,31.50
2018-08-04T12:37:35.578Z,31.60
2018-08-04T12:40:42.658Z,31.90
2018-08-04T12:43:49.523Z,32.30
2018-08-04T12:50:02.811Z,33.50
2018-08-04T12:53:09.644Z,33.40
2018-08-04T12:59:22.241Z,34.70
2018-08-04T13:05:36.070Z,36.90
2018-08-04T13:08:43.251Z,36.40
2018-08-04T13:11:50.529Z,35.80
2018-08-04T13:18:04.150Z,36.10
2018-08-04T13:21:11.240Z,36.40
2018-08-04T13:24:18.053Z,36.10
2018-08-04T13:27:25.201Z,35.50
2018-08-04T13:30:32.387Z,34.90
2018-08-04T13:33:39.509Z,34.50
2018-08-04T13:36:46.578Z,33.90
2018-08-04T13:43:00.208Z,33.30
2018-08-04T13:46:06.912Z,33.30
2018-08-04T13:49:13.854Z,33.30
2018-08-04T13:55:28.101Z,32.90
2018-08-04T14:01:42.272Z,32.60
2018-08-04T14:07:56.343Z,32.60
2018-08-04T14:14:10.537Z,32.40
2018-08-04T14:17:17.747Z,32.30
2018-08-04T14:20:24.563Z,32.10
2018-08-04T14:26:38.575Z,31.70
2018-08-04T14:29:45.432Z,31.80
2018-08-04T14:35:58.929Z,32.00
2018-08-04T14:39:09.950Z,32.00
2018-08-04T14:42:16.895Z,32.00
2018-08-04T14:48:30.783Z,31.80
2018-08-04T14:51:37.713Z,31.70
2018-08-04T14:57:51.744Z,31.50
2018-08-04T15:04:06.058Z,31.20
2018-08-04T15:07:12.855Z,31.00
2018-08-04T15:10:20.046Z,31.00
2018-08-04T15:13:26.910Z,30.80
2018-08-04T15:16:34.027Z,30.90
2018-08-04T15:19:40.853Z,30.80
2018-08-04T15:25:54.893Z,30.80
2018-08-04T15:29:01.933Z,30.70
2018-08-04T15:32:08.875Z,30.70
2018-08-04T15:35:15.706Z,30.60
2018-08-04T15:38:22.820Z,30.50
2018-08-04T15:41:29.633Z,30.40
2018-08-04T15:44:36.846Z,30.50
2018-08-04T16:03:19.158Z,30.00
2018-08-04T16:06:25.158Z,30.10
2018-08-04T16:09:32.116Z,30.10
2018-08-04T16:15:45.647Z,30.00
2018-08-04T16:18:52.439Z,30.10
2018-08-04T16:31:19.051Z,29.80
2018-08-04T16:34:25.888Z,29.80
2018-08-04T16:40:39.548Z,29.40
2018-08-04T16:43:46.809Z,29.40
2018-08-04T16:46:53.662Z,29.40
2018-08-04T16:53:07.472Z,29.10
2018-08-04T16:56:14.568Z,29.00
2018-08-04T16:59:21.377Z,28.90
2018-08-04T17:02:28.307Z,28.90
2018-08-04T17:05:35.117Z,28.80
2018-08-04T17:08:42.283Z,28.60
2018-08-04T17:11:49.141Z,28.50
2018-08-04T17:14:55.948Z,28.50
2018-08-04T17:18:02.859Z,28.40
2018-08-04T17:21:09.941Z,28.20
2018-08-04T17:24:16.767Z,28.20
2018-08-04T17:27:23.491Z,28.20
2018-08-04T17:30:30.628Z,28.10
2018-08-04T17:33:37.619Z,28.00
2018-08-04T17:36:44.448Z,27.90
2018-08-04T17:39:51.267Z,27.90
2018-08-04T17:46:05.075Z,27.70
2018-08-04T17:49:11.870Z,27.70
2018-08-04T17:52:18.701Z,27.60
2018-08-04T17:55:25.523Z,27.40
2018-08-04T17:58:32.334Z,27.30
2018-08-04T18:01:39.250Z,27.20
2018-08-04T18:04:46.019Z,27.10
2018-08-04T18:17:13.354Z,26.90
2018-08-04T18:23:26.402Z,26.90
2018-08-04T18:26:33.244Z,26.80
2018-08-04T18:29:40.104Z,26.70
2018-08-04T18:35:53.818Z,26.40
2018-08-04T18:39:00.609Z,26.40
2018-08-04T18:42:07.490Z,26.30
2018-08-04T18:45:14.277Z,26.20
2018-08-04T18:48:21.070Z,26.10
2018-08-04T18:51:30.876Z,26.10
2018-08-04T19:02:51.711Z,25.80
2018-08-04T19:05:59.147Z,25.70
2018-08-04T19:12:17.769Z,25.50
2018-08-04T19:15:26.297Z,25.50
2018-08-04T19:18:33.987Z,25.40
2018-08-04T19:21:42.531Z,25.40
2018-08-04T19:24:50.641Z,25.30
2018-08-04T19:27:59.833Z,25.30
2018-08-04T19:31:08.787Z,25.40
2018-08-04T19:34:17.112Z,25.20
2018-08-04T19:40:33.218Z,25.00
2018-08-04T19:43:40.766Z,24.90
2018-08-04T19:46:49.096Z,25.00
2018-08-04T19:49:57.400Z,25.00
2018-08-04T19:53:06.170Z,24.80
2018-08-04T19:56:13.324Z,24.70
2018-08-04T20:02:30.073Z,24.60
2018-08-04T20:05:37.162Z,24.50
2018-08-04T20:08:43.934Z,24.40
2018-08-04T20:11:50.818Z,24.40
2018-08-04T20:14:57.658Z,24.30
2018-08-04T20:18:04.470Z,24.30
2018-08-04T20:24:17.885Z,24.30
2018-08-04T20:27:24.705Z,24.20
2018-08-04T20:33:38.483Z,24.20
2018-08-04T20:36:45.274Z,24.20
2018-08-04T20:55:25.594Z,23.80
2018-08-04T20:58:32.415Z,23.80
2018-08-04T21:02:01.666Z,23.70
2018-08-04T21:05:08.558Z,23.70
2018-08-04T21:08:15.379Z,23.70
2018-08-04T21:11:22.293Z,23.50
2018-08-04T21:14:29.670Z,23.50
2018-08-04T21:17:36.540Z,23.40
2018-08-04T21:23:50.100Z,23.20
2018-08-04T21:26:57.033Z,23.10
2018-08-04T21:30:03.844Z,23.10
2018-08-04T21:39:23.708Z,23.10
2018-08-04T21:42:30.579Z,23.00
2018-08-04T21:45:37.399Z,22.90
2018-08-04T21:48:44.195Z,23.00
2018-08-04T21:51:51.639Z,22.90
2018-08-04T21:54:58.465Z,22.80
2018-08-04T21:58:05.334Z,22.70
2018-08-04T22:01:15.113Z,22.70
2018-08-04T22:04:22.011Z,22.70
2018-08-04T22:07:48.134Z,22.70
2018-08-04T22:10:55.141Z,22.60
2018-08-04T22:14:02.033Z,22.60
2018-08-04T22:20:18.318Z,22.50
2018-08-04T22:23:25.666Z,22.50
2018-08-04T22:26:32.553Z,22.50
2018-08-04T22:29:39.345Z,22.50
2018-08-04T22:32:46.354Z,22.30
2018-08-04T22:42:06.100Z,22.10
2018-08-04T22:48:52.433Z,22.20
2018-08-04T22:51:59.006Z,22.00
2018-08-04T23:10:39.772Z,21.80
2018-08-04T23:13:46.679Z,21.90
2018-08-04T23:20:00.049Z,21.80
2018-08-04T23:23:07.558Z,21.90
2018-08-04T23:29:21.058Z,22.00
2018-08-04T23:32:27.848Z,21.90
2018-08-04T23:35:34.650Z,21.90
2018-08-04T23:38:41.431Z,21.90
2018-08-04T23:41:48.240Z,21.80
2018-08-04T23:44:54.721Z,21.80
2018-08-04T23:48:01.504Z,21.80
2018-08-04T23:51:08.796Z,21.80
2018-08-04T23:54:15.610Z,21.70
2018-08-04T23:57:22.487Z,21.60
